Time;durP1;ratioP1;P1;durP2;ratioP2;P2;SDS_P1;SDS_P2;PMS_P1;PMS_P2;Temp;Humidity;BMP_temperature;BMP_pressure;BME280_temperature;BME280_humidity;BME280_pressure;Samples;Min_cycle;Max_cycle;Signal;HPM_P1;HPM_P2
2022/03/15 00:00:55;;;;;;;24.65;13.60;;;3.00;99.90;;;;;;5080059;28;20050;-72
2022/03/15 00:03:22;;;;;;;26.30;12.50;;;3.40;99.90;;;;;;5097900;28;20123;-72
2022/03/15 00:05:47;;;;;;;28.40;12.82;;;3.00;99.90;;;;;;5097909;28;20102;-73
2022/03/15 00:08:13;;;;;;;25.45;12.88;;;3.00;99.90;;;;;;5097961;28;20052;-72
2022/03/15 00:10:39;;;;;;;27.63;13.15;;;3.10;99.90;;;;;;5098197;28;20039;-71
2022/03/15 00:13:06;;;;;;;25.42;14.10;;;3.10;99.90;;;;;;5098004;28;20193;-72
2022/03/15 00:15:32;;;;;;;25.23;13.55;;;3.10;99.90;;;;;;5079703;28;20118;-72
2022/03/15 00:17:59;;;;;;;23.33;13.15;;;3.10;99.90;;;;;;5094829;28;20052;-71
2022/03/15 00:20:25;;;;;;;29.17;14.05;;;3.10;99.90;;;;;;5080684;28;20052;-72
2022/03/15 00:22:55;;;;;;;25.70;12.23;;;3.10;99.90;;;;;;5098049;28;20040;-72
2022/03/15 00:25:21;;;;;;;30.30;13.13;;;3.10;99.90;;;;;;5097884;28;20055;-72
2022/03/15 00:27:50;;;;;;;25.25;12.63;;;3.10;99.90;;;;;;5096887;28;20048;-72
2022/03/15 00:30:17;;;;;;;22.63;12.30;;;3.10;99.90;;;;;;5079756;28;20533;-71
2022/03/15 00:32:43;;;;;;;26.15;13.18;;;3.10;99.90;;;;;;5097430;28;20380;-72
2022/03/15 00:35:16;;;;;;;23.83;11.85;;;3.00;99.90;;;;;;5097405;28;20048;-73
2022/03/15 00:37:46;;;;;;;21.90;11.82;;;3.00;99.90;;;;;;5075813;28;20117;-72
2022/03/15 00:40:13;;;;;;;34.40;13.75;;;3.00;99.90;;;;;;5077296;28;20086;-75
2022/03/15 00:42:39;;;;;;;20.27;11.73;;;3.00;99.90;;;;;;5077399;28;20087;-72
2022/03/15 00:45:06;;;;;;;24.40;11.52;;;2.90;99.90;;;;;;5077222;28;20048;-70
2022/03/15 00:47:32;;;;;;;21.67;11.82;;;3.00;99.90;;;;;;5059344;28;20102;-72
2022/03/15 00:49:57;;;;;;;30.77;13.27;;;3.00;99.90;;;;;;5076827;28;20040;-72
2022/03/15 00:52:23;;;;;;;28.23;11.65;;;3.00;99.90;;;;;;5076768;28;20053;-72
2022/03/15 00:54:49;;;;;;;27.00;11.68;;;2.90;99.90;;;;;;5076811;28;20052;-71
2022/03/15 00:57:14;;;;;;;31.40;11.93;;;2.90;99.90;;;;;;5089415;28;20048;-74
2022/03/15 00:59:40;;;;;;;29.70;10.90;;;2.90;99.90;;;;;;5097271;28;20050;-72
2022/03/15 01:02:06;;;;;;;22.92;11.40;;;2.90;99.90;;;;;;5096690;28;20050;-72
2022/03/15 01:04:31;;;;;;;26.75;12.55;;;2.90;99.90;;;;;;5097432;28;20112;-71
2022/03/15 01:06:57;;;;;;;25.65;11.85;;;2.90;99.90;;;;;;5096888;28;20067;-72
2022/03/15 01:09:23;;;;;;;22.23;12.00;;;2.80;99.90;;;;;;5096969;28;20059;-74
2022/03/15 01:11:48;;;;;;;27.75;12.65;;;2.80;99.90;;;;;;5097015;28;20048;-71
2022/03/15 01:14:14;;;;;;;24.73;12.02;;;2.90;99.90;;;;;;5096806;28;20036;-72
2022/03/15 01:16:40;;;;;;;25.23;14.35;;;2.90;99.90;;;;;;5078981;28;20113;-72
2022/03/15 01:19:07;;;;;;;21.55;11.88;;;2.90;99.90;;;;;;5096266;28;20040;-71
2022/03/15 01:21:39;;;;;;;22.92;12.70;;;2.90;99.90;;;;;;5072935;28;20040;-72
2022/03/15 01:24:08;;;;;;;26.55;14.40;;;2.90;99.90;;;;;;5096573;28;20377;-71
2022/03/15 01:26:35;;;;;;;43.38;16.30;;;2.90;99.90;;;;;;5095806;28;20059;-72
2022/03/15 01:29:01;;;;;;;34.05;15.07;;;2.80;99.90;;;;;;5078597;28;20075;-71
2022/03/15 01:31:27;;;;;;;25.88;15.10;;;2.80;99.90;;;;;;5078995;28;20418;-70
2022/03/15 01:33:53;;;;;;;26.33;14.82;;;2.80;99.90;;;;;;5096698;28;20056;-72
2022/03/15 01:36:19;;;;;;;23.10;13.30;;;2.80;99.90;;;;;;5096195;28;20044;-72
2022/03/15 01:38:45;;;;;;;26.30;15.02;;;2.80;99.90;;;;;;5096397;28;20499;-71
2022/03/15 01:41:11;;;;;;;26.92;15.10;;;2.80;99.90;;;;;;5095930;28;20150;-72
2022/03/15 01:43:39;;;;;;;25.67;14.27;;;2.80;99.90;;;;;;5078037;28;20056;-74
2022/03/15 01:46:06;;;;;;;24.27;14.80;;;2.80;99.90;;;;;;5078622;28;20052;-75
2022/03/15 01:48:31;;;;;;;31.30;14.60;;;2.70;99.90;;;;;;5096129;28;20044;-76
2022/03/15 01:50:57;;;;;;;23.52;13.88;;;2.70;99.90;;;;;;5096121;28;20039;-72
2022/03/15 01:53:23;;;;;;;33.42;15.45;;;2.70;99.90;;;;;;5095917;28;20077;-73
2022/03/15 01:55:49;;;;;;;25.10;15.18;;;2.70;99.90;;;;;;5095248;28;20133;-72
2022/03/15 01:58:15;;;;;;;35.72;16.75;;;2.70;99.90;;;;;;5094648;28;20040;-70
2022/03/15 02:00:40;;;;;;;30.30;16.27;;;2.70;99.90;;;;;;5096044;28;20058;-73
2022/03/15 02:03:06;;;;;;;35.22;17.85;;;2.70;99.90;;;;;;5095671;28;20044;-72
2022/03/15 02:05:31;;;;;;;34.58;17.88;;;2.80;99.90;;;;;;5095653;28;20048;-73
2022/03/15 02:08:06;;;;;;;27.60;16.27;;;2.90;99.90;;;;;;5095851;28;20497;-72
2022/03/15 02:10:31;;;;;;;34.80;18.15;;;2.90;99.90;;;;;;5095817;28;20048;-72
2022/03/15 02:12:57;;;;;;;34.10;17.55;;;2.90;99.90;;;;;;5095607;28;20117;-74
2022/03/15 02:15:22;;;;;;;36.28;17.45;;;3.00;99.90;;;;;;5077656;28;20044;-71
2022/03/15 02:17:48;;;;;;;31.55;18.55;;;3.10;99.90;;;;;;5095525;28;20441;-71
2022/03/15 02:20:13;;;;;;;41.33;20.40;;;3.10;99.90;;;;;;5095374;28;20402;-72
2022/03/15 02:22:39;;;;;;;34.25;18.15;;;3.10;99.90;;;;;;5077707;28;20365;-72
2022/03/15 02:25:04;;;;;;;34.22;19.02;;;3.10;99.90;;;;;;5095495;28;20047;-72
2022/03/15 02:27:30;;;;;;;31.23;18.80;;;3.10;99.90;;;;;;5094970;28;20056;-72
2022/03/15 02:29:56;;;;;;;29.48;17.85;;;3.10;99.90;;;;;;5095222;28;20063;-72
2022/03/15 02:32:21;;;;;;;32.30;17.42;;;3.10;99.90;;;;;;5095387;28;20445;-72
2022/03/15 02:34:47;;;;;;;34.47;16.95;;;3.10;99.90;;;;;;5095087;28;20123;-72
2022/03/15 02:37:12;;;;;;;30.75;17.80;;;3.20;99.90;;;;;;5060454;28;20047;-71
2022/03/15 02:39:38;;;;;;;29.45;16.85;;;3.30;99.90;;;;;;5095267;28;20040;-72
2022/03/15 02:42:03;;;;;;;27.30;17.55;;;3.20;99.90;;;;;;5077213;28;20043;-71
2022/03/15 02:44:29;;;;;;;27.30;16.70;;;3.30;99.90;;;;;;5095080;28;20052;-71
2022/03/15 02:46:54;;;;;;;30.92;18.83;;;3.30;99.90;;;;;;5077184;28;20051;-75
2022/03/15 02:49:20;;;;;;;35.92;20.50;;;3.40;99.90;;;;;;5095017;28;20048;-73
2022/03/15 02:51:46;;;;;;;32.38;19.77;;;3.40;99.90;;;;;;5095177;28;20052;-71
2022/03/15 02:54:13;;;;;;;37.53;21.60;;;3.40;99.90;;;;;;5094965;28;20086;-72
2022/03/15 02:56:42;;;;;;;29.20;18.98;;;3.50;99.90;;;;;;5094492;28;20108;-70
2022/03/15 02:59:10;;;;;;;29.65;17.80;;;3.60;99.90;;;;;;5077580;28;20052;-72
2022/03/15 03:01:35;;;;;;;33.83;20.90;;;3.60;99.90;;;;;;5094864;28;20043;-74
2022/03/15 03:04:01;;;;;;;33.28;19.00;;;3.70;99.90;;;;;;5077285;28;20040;-70
2022/03/15 03:06:27;;;;;;;26.98;17.50;;;3.70;99.90;;;;;;5095109;28;20529;-72
2022/03/15 03:08:52;;;;;;;36.70;19.42;;;3.80;99.90;;;;;;5095141;28;20075;-71
2022/03/15 03:11:18;;;;;;;30.13;17.17;;;3.80;99.90;;;;;;5094945;28;20032;-71
2022/03/15 03:13:44;;;;;;;33.60;18.80;;;3.90;99.90;;;;;;5094825;28;20119;-71
2022/03/15 03:16:12;;;;;;;36.97;17.42;;;3.90;99.90;;;;;;5095200;28;20055;-72
2022/03/15 03:18:38;;;;;;;35.95;18.92;;;4.00;99.90;;;;;;5046776;28;20057;-71
2022/03/15 03:21:05;;;;;;;29.52;17.83;;;4.00;99.90;;;;;;5098512;28;20048;-72
2022/03/15 03:23:35;;;;;;;29.63;17.83;;;4.10;99.90;;;;;;5098897;28;20044;-72
2022/03/15 03:26:01;;;;;;;28.98;16.95;;;4.10;99.90;;;;;;5097907;28;20044;-76
2022/03/15 03:28:33;;;;;;;28.65;16.15;;;4.10;99.90;;;;;;5098711;28;20063;-75
2022/03/15 03:31:00;;;;;;;32.83;17.48;;;4.20;99.90;;;;;;5098639;28;20044;-72
2022/03/15 03:33:26;;;;;;;29.63;16.55;;;4.20;99.90;;;;;;5081061;28;20043;-72
2022/03/15 03:35:52;;;;;;;30.55;15.63;;;4.20;99.90;;;;;;5098840;28;20055;-72
2022/03/15 03:38:18;;;;;;;26.00;16.48;;;4.20;99.90;;;;;;5080764;28;20047;-71
2022/03/15 03:40:44;;;;;;;26.30;16.15;;;4.20;99.90;;;;;;5098467;28;20047;-71
2022/03/15 03:43:10;;;;;;;26.13;15.30;;;4.20;99.90;;;;;;5081103;28;20048;-72
2022/03/15 03:45:36;;;;;;;31.33;16.90;;;4.20;99.90;;;;;;5098434;28;20131;-72
2022/03/15 03:48:02;;;;;;;31.30;17.05;;;4.20;99.90;;;;;;5098547;28;20047;-70
2022/03/15 03:50:28;;;;;;;28.38;15.63;;;4.10;99.90;;;;;;5097826;28;20036;-72
2022/03/15 03:52:54;;;;;;;22.60;14.57;;;4.10;99.90;;;;;;5080183;28;20097;-72
2022/03/15 03:55:20;;;;;;;23.98;14.63;;;4.10;99.90;;;;;;5097868;28;20063;-71
2022/03/15 03:57:45;;;;;;;31.77;15.98;;;4.00;99.90;;;;;;5097987;28;20057;-73
2022/03/15 04:00:11;;;;;;;34.80;17.20;;;4.00;99.90;;;;;;5097748;28;20047;-75
2022/03/15 04:02:37;;;;;;;27.77;15.75;;;4.00;99.90;;;;;;5097693;28;20055;-70
2022/03/15 04:05:03;;;;;;;32.45;17.52;;;4.10;99.90;;;;;;5098295;28;20185;-71
2022/03/15 04:07:29;;;;;;;30.40;16.92;;;4.10;99.90;;;;;;5097885;28;20086;-72
2022/03/15 04:09:55;;;;;;;27.48;17.73;;;4.10;99.90;;;;;;5098119;28;20056;-72
2022/03/15 04:12:21;;;;;;;39.53;19.63;;;4.20;99.90;;;;;;5098111;28;20127;-72
2022/03/15 04:14:47;;;;;;;28.67;17.92;;;4.20;99.90;;;;;;5097870;28;20122;-72
2022/03/15 04:17:14;;;;;;;37.30;19.33;;;4.20;99.90;;;;;;5098044;28;20050;-71
2022/03/15 04:19:40;;;;;;;30.70;18.58;;;4.20;99.90;;;;;;5080086;28;20148;-71
2022/03/15 04:22:05;;;;;;;33.30;19.92;;;4.30;99.90;;;;;;5097606;28;20115;-72
2022/03/15 04:24:32;;;;;;;37.30;17.30;;;4.30;99.90;;;;;;5097990;28;20036;-71
2022/03/15 04:26:59;;;;;;;29.80;17.20;;;4.40;99.90;;;;;;5096834;28;20052;-72
2022/03/15 04:29:26;;;;;;;39.20;19.08;;;4.40;99.90;;;;;;5080051;28;20056;-70
2022/03/15 04:31:52;;;;;;;31.20;18.05;;;4.40;99.90;;;;;;5097781;28;20087;-73
2022/03/15 04:34:17;;;;;;;30.63;17.48;;;4.40;99.90;;;;;;5097714;28;20078;-73
2022/03/15 04:36:44;;;;;;;28.73;15.82;;;4.40;99.90;;;;;;5079686;28;20048;-71
2022/03/15 04:39:11;;;;;;;27.48;16.92;;;4.50;99.90;;;;;;5079763;28;20044;-72
2022/03/15 04:41:36;;;;;;;28.42;16.00;;;4.50;99.90;;;;;;5097733;28;20044;-71
2022/03/15 04:44:02;;;;;;;30.55;16.35;;;4.50;99.90;;;;;;5097557;28;20040;-71
2022/03/15 04:46:29;;;;;;;26.23;16.70;;;4.50;99.90;;;;;;5079681;28;20051;-72
2022/03/15 04:48:55;;;;;;;26.00;16.27;;;4.50;99.90;;;;;;5097377;28;20043;-73
2022/03/15 04:51:21;;;;;;;28.83;17.17;;;4.60;99.90;;;;;;5079006;28;20105;-71
2022/03/15 04:53:47;;;;;;;29.38;16.10;;;4.60;99.90;;;;;;5096773;28;20123;-72
2022/03/15 04:56:13;;;;;;;28.25;15.45;;;4.60;99.90;;;;;;5096071;28;20510;-71
2022/03/15 04:58:39;;;;;;;27.65;15.80;;;4.60;99.90;;;;;;5085669;28;20044;-72
2022/03/15 05:01:05;;;;;;;30.42;17.42;;;4.60;99.90;;;;;;5082814;28;20044;-72
2022/03/15 05:03:33;;;;;;;26.05;15.02;;;4.70;99.90;;;;;;5081207;28;20059;-71
2022/03/15 05:05:59;;;;;;;35.67;17.80;;;4.70;99.90;;;;;;5078958;28;20044;-74
2022/03/15 05:08:25;;;;;;;30.83;16.10;;;4.70;99.90;;;;;;5096754;28;20075;-72
2022/03/15 05:11:08;;;;;;;23.73;14.45;;;4.70;99.90;;;;;;5097161;28;20083;-72
2022/03/15 05:13:45;;;;;;;30.48;15.30;;;4.70;99.90;;;;;;5096833;28;20066;-72
2022/03/15 05:16:14;;;;;;;33.17;17.73;;;4.60;99.90;;;;;;5096775;28;20036;-72
2022/03/15 05:18:41;;;;;;;32.42;16.60;;;4.60;99.90;;;;;;5096676;28;20080;-72
2022/03/15 05:21:07;;;;;;;39.45;18.13;;;4.60;99.90;;;;;;5078679;28;20488;-72
2022/03/15 05:23:34;;;;;;;33.25;17.52;;;4.60;99.90;;;;;;5096806;28;20356;-72
2022/03/15 05:26:00;;;;;;;31.60;16.77;;;4.60;99.90;;;;;;5095873;28;20097;-73
2022/03/15 05:28:25;;;;;;;30.20;16.33;;;4.60;99.90;;;;;;5096186;28;20055;-74
2022/03/15 05:30:51;;;;;;;38.58;19.20;;;4.60;99.90;;;;;;5110279;28;20082;-72
2022/03/15 05:33:17;;;;;;;34.72;18.83;;;4.50;99.90;;;;;;5099041;28;20096;-72
2022/03/15 05:35:43;;;;;;;41.53;19.60;;;4.50;99.90;;;;;;5116375;28;20104;-72
2022/03/15 05:38:09;;;;;;;39.15;18.42;;;4.50;99.90;;;;;;5116633;28;20108;-71
2022/03/15 05:40:35;;;;;;;38.45;20.10;;;4.50;99.90;;;;;;5115703;28;20440;-73
2022/03/15 05:43:01;;;;;;;34.83;19.10;;;4.50;99.90;;;;;;5116889;28;20047;-72
2022/03/15 05:45:26;;;;;;;39.53;21.27;;;4.50;99.90;;;;;;5116484;28;20047;-72
2022/03/15 05:47:53;;;;;;;42.33;19.95;;;4.40;99.90;;;;;;5080409;28;20063;-72
2022/03/15 05:50:18;;;;;;;36.47;20.40;;;4.40;99.90;;;;;;5116094;28;20051;-73
2022/03/15 05:52:44;;;;;;;37.50;19.50;;;4.40;99.90;;;;;;5116287;28;20072;-75
2022/03/15 05:55:11;;;;;;;35.50;19.63;;;4.40;99.90;;;;;;5112836;28;20064;-72
2022/03/15 05:57:37;;;;;;;33.38;19.58;;;4.40;99.90;;;;;;5077573;28;20143;-71
2022/03/15 06:00:07;;;;;;;49.88;21.38;;;4.40;99.90;;;;;;5095912;28;20364;-69
2022/03/15 06:02:32;;;;;;;35.90;19.95;;;4.40;99.90;;;;;;5095311;28;20479;-72
2022/03/15 06:04:59;;;;;;;32.85;18.67;;;4.50;99.90;;;;;;5077594;28;20048;-72
2022/03/15 06:07:26;;;;;;;35.90;21.45;;;4.40;99.90;;;;;;5095650;28;20101;-71
2022/03/15 06:09:52;;;;;;;32.17;18.75;;;4.40;99.90;;;;;;5095749;28;20051;-72
2022/03/15 06:12:20;;;;;;;39.00;21.05;;;4.50;99.90;;;;;;5095890;28;20051;-71
2022/03/15 06:14:46;;;;;;;35.53;19.80;;;4.50;99.90;;;;;;5095474;28;20044;-72
2022/03/15 06:17:12;;;;;;;34.15;19.10;;;4.50;99.90;;;;;;5095819;28;20109;-72
2022/03/15 06:19:37;;;;;;;36.00;20.38;;;4.50;99.90;;;;;;5095506;28;20082;-73
2022/03/15 06:22:03;;;;;;;32.00;19.42;;;4.60;99.90;;;;;;5077780;28;20094;-72
2022/03/15 06:24:29;;;;;;;38.42;19.60;;;4.60;99.90;;;;;;5094862;28;20532;-73
2022/03/15 06:26:55;;;;;;;33.80;19.95;;;4.60;99.90;;;;;;5094078;28;20072;-71
2022/03/15 06:29:20;;;;;;;32.35;18.80;;;4.60;99.90;;;;;;5092274;28;20085;-71
2022/03/15 06:31:46;;;;;;;37.05;20.65;;;4.70;99.90;;;;;;5093338;28;20108;-70
2022/03/15 06:34:12;;;;;;;34.00;20.23;;;4.70;99.90;;;;;;5094093;28;20054;-71
2022/03/15 06:36:39;;;;;;;32.60;19.55;;;4.70;99.90;;;;;;5074836;28;20052;-71
2022/03/15 06:39:05;;;;;;;30.30;18.42;;;4.70;99.90;;;;;;5096600;28;20413;-74
2022/03/15 06:41:31;;;;;;;28.05;18.98;;;4.80;99.90;;;;;;5074844;28;20134;-73
2022/03/15 06:43:57;;;;;;;28.02;18.40;;;4.80;99.90;;;;;;5091598;28;20082;-70
2022/03/15 06:46:23;;;;;;;34.80;18.10;;;4.80;99.90;;;;;;5076956;28;20086;-68
2022/03/15 06:48:49;;;;;;;30.92;18.25;;;4.90;99.90;;;;;;5075903;28;20067;-72
2022/03/15 06:51:15;;;;;;;40.95;19.05;;;4.90;99.90;;;;;;5094764;28;20044;-71
2022/03/15 06:53:41;;;;;;;31.80;18.10;;;4.80;99.90;;;;;;5075898;28;20084;-70
2022/03/15 06:56:08;;;;;;;27.75;18.33;;;4.90;99.90;;;;;;5093613;28;20164;-70
2022/03/15 06:58:34;;;;;;;38.67;19.83;;;4.90;99.90;;;;;;5075610;28;20052;-72
2022/03/15 07:00:59;;;;;;;40.25;20.17;;;5.00;99.90;;;;;;5094642;28;20342;-69
2022/03/15 07:03:25;;;;;;;31.40;19.35;;;5.00;99.90;;;;;;5093365;28;20047;-71
2022/03/15 07:05:51;;;;;;;43.30;21.38;;;5.00;99.90;;;;;;5076165;28;20044;-72
2022/03/15 07:08:16;;;;;;;37.95;21.80;;;5.10;99.90;;;;;;5093975;28;20056;-72
2022/03/15 07:10:42;;;;;;;42.15;21.77;;;5.10;99.90;;;;;;5094564;28;20048;-69
2022/03/15 07:13:08;;;;;;;34.22;21.67;;;5.10;99.90;;;;;;5076530;28;20456;-72
2022/03/15 07:15:33;;;;;;;37.15;21.23;;;5.10;99.90;;;;;;5094316;28;20062;-71
2022/03/15 07:17:59;;;;;;;46.03;23.98;;;5.10;99.90;;;;;;5095985;28;20067;-70
2022/03/15 07:20:26;;;;;;;45.78;24.58;;;5.20;99.90;;;;;;5077417;28;20109;-71
2022/03/15 07:22:52;;;;;;;37.08;25.20;;;5.20;99.90;;;;;;5093597;28;20115;-72
2022/03/15 07:25:20;;;;;;;40.25;25.27;;;5.20;99.90;;;;;;5075723;28;20044;-70
2022/03/15 07:27:46;;;;;;;49.13;27.27;;;5.30;99.90;;;;;;5093335;28;20055;-71
2022/03/15 07:30:12;;;;;;;47.70;27.80;;;5.30;99.90;;;;;;5094602;28;20032;-71
2022/03/15 07:32:37;;;;;;;47.65;26.65;;;5.30;99.90;;;;;;5085444;28;20356;-72
2022/03/15 07:35:04;;;;;;;46.50;26.23;;;5.40;99.90;;;;;;5093461;28;20036;-71
2022/03/15 07:37:29;;;;;;;47.00;27.23;;;5.40;99.90;;;;;;5090775;28;20372;-71
2022/03/15 07:39:55;;;;;;;46.60;27.75;;;5.50;99.90;;;;;;5094300;28;20040;-71
2022/03/15 07:42:23;;;;;;;45.28;26.80;;;5.50;99.90;;;;;;5093736;28;20125;-72
2022/03/15 07:44:49;;;;;;;40.65;24.77;;;5.60;99.90;;;;;;5094177;28;20071;-72
2022/03/15 07:47:15;;;;;;;43.47;26.60;;;5.70;99.90;;;;;;5094272;28;20040;-71
2022/03/15 07:49:41;;;;;;;38.42;25.98;;;5.70;99.90;;;;;;5094209;28;20082;-71
2022/03/15 07:52:08;;;;;;;42.10;26.67;;;5.70;99.90;;;;;;5076197;28;20044;-72
2022/03/15 07:54:34;;;;;;;49.13;27.98;;;5.80;99.90;;;;;;5093943;28;20048;-71
2022/03/15 07:57:00;;;;;;;52.47;27.20;;;5.70;99.90;;;;;;5092569;28;20048;-72
2022/03/15 07:59:25;;;;;;;53.17;26.98;;;5.80;99.90;;;;;;5093645;28;20077;-71
2022/03/15 08:01:51;;;;;;;45.63;27.05;;;5.80;99.90;;;;;;5093878;28;20403;-72
2022/03/15 08:04:17;;;;;;;46.40;27.23;;;5.80;99.90;;;;;;5097040;28;20391;-71
2022/03/15 08:06:42;;;;;;;51.83;27.75;;;5.90;99.90;;;;;;5097835;28;20056;-72
2022/03/15 08:09:08;;;;;;;49.97;29.13;;;5.90;99.90;;;;;;5097533;28;20376;-72
2022/03/15 08:11:35;;;;;;;52.83;28.85;;;6.00;99.90;;;;;;5093838;28;20380;-68
2022/03/15 08:14:01;;;;;;;49.38;29.02;;;6.00;99.90;;;;;;5080154;28;20059;-71
2022/03/15 08:16:27;;;;;;;50.40;28.13;;;5.90;99.90;;;;;;5097488;28;20380;-73
2022/03/15 08:18:54;;;;;;;46.17;28.70;;;6.00;99.90;;;;;;5097425;28;20456;-71
2022/03/15 08:21:22;;;;;;;50.20;29.77;;;6.00;99.90;;;;;;5097533;28;20052;-73
2022/03/15 08:23:48;;;;;;;47.75;27.77;;;6.00;99.90;;;;;;5086989;28;20524;-73
2022/03/15 08:26:15;;;;;;;53.95;30.67;;;6.10;99.90;;;;;;5095060;28;20063;-72
2022/03/15 08:28:41;;;;;;;43.85;26.85;;;6.10;99.90;;;;;;5082158;28;20097;-72
2022/03/15 08:31:06;;;;;;;52.10;29.35;;;6.20;99.90;;;;;;5097058;28;20345;-72
2022/03/15 08:33:32;;;;;;;50.85;28.80;;;6.20;99.90;;;;;;5097091;28;20093;-74
2022/03/15 08:35:58;;;;;;;51.88;29.10;;;6.20;99.90;;;;;;5097194;28;20079;-72
2022/03/15 08:38:25;;;;;;;48.65;29.05;;;6.30;99.90;;;;;;5097066;28;20052;-75
2022/03/15 08:40:51;;;;;;;44.60;27.92;;;6.30;99.90;;;;;;5079026;28;20072;-72
2022/03/15 08:43:17;;;;;;;50.90;27.85;;;6.30;99.90;;;;;;5096986;28;20044;-72
2022/03/15 08:45:43;;;;;;;50.45;29.10;;;6.40;99.90;;;;;;5075572;28;20372;-74
2022/03/15 08:48:09;;;;;;;52.88;28.92;;;6.40;99.90;;;;;;5091407;28;20114;-72
2022/03/15 08:50:34;;;;;;;49.85;29.52;;;6.50;99.90;;;;;;5096820;28;20401;-73
2022/03/15 08:53:00;;;;;;;48.25;30.00;;;6.50;99.90;;;;;;5078666;28;20115;-72
2022/03/15 08:55:28;;;;;;;49.05;29.27;;;6.60;99.90;;;;;;5095517;28;20109;-70
2022/03/15 08:57:53;;;;;;;45.17;28.20;;;6.60;99.90;;;;;;5096410;28;20102;-72
2022/03/15 09:00:19;;;;;;;51.00;29.73;;;6.70;99.90;;;;;;5096890;28;20071;-73
2022/03/15 09:02:45;;;;;;;47.45;29.05;;;6.70;99.90;;;;;;5095769;28;20048;-72
2022/03/15 09:05:11;;;;;;;44.22;29.23;;;6.70;99.90;;;;;;5061927;28;20047;-72
2022/03/15 09:07:38;;;;;;;54.17;31.55;;;6.80;99.90;;;;;;5096363;28;20044;-72
2022/03/15 09:10:04;;;;;;;53.85;31.00;;;7.00;99.90;;;;;;5096049;28;20043;-73
2022/03/15 09:12:30;;;;;;;54.13;31.60;;;6.80;99.90;;;;;;5096410;28;20036;-72
2022/03/15 09:14:56;;;;;;;52.25;31.75;;;6.90;99.90;;;;;;5096316;28;20333;-74
2022/03/15 09:17:21;;;;;;;50.63;30.58;;;6.90;99.90;;;;;;5078740;28;20452;-72
2022/03/15 09:19:50;;;;;;;49.15;31.13;;;7.00;99.90;;;;;;5096233;28;20043;-74
2022/03/15 09:22:16;;;;;;;47.35;30.42;;;7.10;99.90;;;;;;5096273;28;20051;-70
2022/03/15 09:24:41;;;;;;;49.63;31.40;;;7.20;99.90;;;;;;5095397;28;20097;-70
2022/03/15 09:27:07;;;;;;;47.75;29.98;;;7.20;99.90;;;;;;5095899;28;20055;-70
2022/03/15 09:29:33;;;;;;;47.42;30.25;;;7.30;99.90;;;;;;5092914;28;20044;-72
2022/03/15 09:31:58;;;;;;;47.97;29.95;;;7.30;99.90;;;;;;5078652;28;20454;-71
2022/03/15 09:34:26;;;;;;;50.13;30.17;;;7.40;99.90;;;;;;5096290;28;20036;-71
2022/03/15 09:36:51;;;;;;;47.28;29.63;;;7.40;99.90;;;;;;5096417;28;20055;-72
2022/03/15 09:39:18;;;;;;;45.28;29.90;;;7.50;99.90;;;;;;5096142;28;20048;-70
2022/03/15 09:41:47;;;;;;;46.00;29.13;;;7.50;99.90;;;;;;5096008;28;20130;-72
2022/03/15 09:44:17;;;;;;;45.08;30.67;;;7.60;99.90;;;;;;5096155;28;20475;-72
2022/03/15 09:46:50;;;;;;;51.42;30.52;;;7.70;99.90;;;;;;5078483;28;20355;-72
2022/03/15 09:49:18;;;;;;;;;;;7.80;99.90;;;;;;5096442;28;20048;-72
2022/03/15 09:51:47;;;;;;;47.35;29.45;;;7.90;99.90;;;;;;5095745;28;20255;-72
2022/03/15 09:54:14;;;;;;;50.47;31.17;;;8.10;99.90;;;;;;5077982;28;20112;-72
2022/03/15 09:56:41;;;;;;;52.28;31.00;;;8.20;99.90;;;;;;5096068;28;20047;-72
2022/03/15 09:59:14;;;;;;;45.03;28.90;;;8.40;99.90;;;;;;5095960;28;20349;-73
2022/03/15 10:01:41;;;;;;;46.10;27.55;;;8.50;99.90;;;;;;5078240;28;20141;-72
2022/03/15 10:04:08;;;;;;;42.22;27.67;;;8.60;99.90;;;;;;5095262;28;20051;-72
2022/03/15 10:06:34;;;;;;;37.95;26.33;;;8.80;99.90;;;;;;5096375;28;20055;-73
2022/03/15 10:08:59;;;;;;;45.75;27.05;;;8.80;99.90;;;;;;5095334;28;20448;-71
2022/03/15 10:11:25;;;;;;;41.92;28.10;;;9.00;99.90;;;;;;5095791;28;20050;-72
2022/03/15 10:13:51;;;;;;;37.80;26.55;;;9.10;99.90;;;;;;5077559;28;20105;-72
2022/03/15 10:16:17;;;;;;;37.53;24.55;;;9.20;99.90;;;;;;5095826;28;20047;-73
2022/03/15 10:18:53;;;;;;;36.85;25.48;;;9.40;99.90;;;;;;5095530;28;20044;-71
2022/03/15 10:21:21;;;;;;;31.88;22.13;;;9.50;99.90;;;;;;5095308;28;20134;-71
2022/03/15 10:23:46;;;;;;;34.20;22.75;;;9.70;99.90;;;;;;5095281;28;20054;-71
2022/03/15 10:26:27;;;;;;;40.28;23.05;;;9.80;99.90;;;;;;5094696;28;20044;-73
2022/03/15 10:28:54;;;;;;;36.85;22.50;;;9.90;99.90;;;;;;5095494;28;20080;-72
2022/03/15 10:31:24;;;;;;;29.23;21.48;;;10.00;99.90;;;;;;5095270;28;20081;-73
2022/03/15 10:33:53;;;;;;;27.75;19.40;;;10.00;99.90;;;;;;5095491;28;20052;-72
2022/03/15 10:36:20;;;;;;;29.58;19.98;;;10.00;99.90;;;;;;5095409;28;20105;-72
2022/03/15 10:38:51;;;;;;;29.45;19.48;;;10.00;99.90;;;;;;5094959;28;20059;-72
2022/03/15 10:41:17;;;;;;;28.27;18.38;;;10.00;99.90;;;;;;5095248;28;20051;-71
2022/03/15 10:43:43;;;;;;;34.55;19.27;;;10.00;99.90;;;;;;5095108;28;20054;-72
2022/03/15 10:46:12;;;;;;;32.72;18.70;;;10.10;99.90;;;;;;5095125;28;20067;-71
2022/03/15 10:48:38;;;;;;;33.17;20.38;;;10.10;99.90;;;;;;5095083;28;20055;-73
2022/03/15 10:51:13;;;;;;;29.88;20.13;;;10.10;99.90;;;;;;5077701;28;20139;-73
2022/03/15 10:53:44;;;;;;;27.27;18.77;;;10.10;99.90;;;;;;5094865;28;20044;-73
2022/03/15 10:56:15;;;;;;;29.58;20.23;;;10.10;99.90;;;;;;5057189;28;20430;-73
2022/03/15 10:58:54;;;;;;;32.08;20.77;;;10.10;99.90;;;;;;5094749;28;20163;-72
2022/03/15 11:01:24;;;;;;;29.42;22.13;;;10.20;99.90;;;;;;5095445;28;20044;-74
2022/03/15 11:04:00;;;;;;;30.58;21.40;;;10.20;99.90;;;;;;5095207;28;20055;-72
2022/03/15 11:06:38;;;;;;;31.83;21.35;;;10.20;99.90;;;;;;5077293;28;20552;-70
2022/03/15 11:09:15;;;;;;;29.92;20.85;;;10.20;99.90;;;;;;5094878;28;20079;-71
2022/03/15 11:11:42;;;;;;;34.88;22.65;;;10.20;99.90;;;;;;5077765;28;20107;-72
2022/03/15 11:14:10;;;;;;;34.03;22.30;;;10.20;99.90;;;;;;5094775;28;20054;-71
2022/03/15 11:16:37;;;;;;;37.20;22.92;;;10.20;99.90;;;;;;5094635;28;20040;-73
2022/03/15 11:19:04;;;;;;;30.13;21.90;;;10.20;99.90;;;;;;5094997;28;20048;-71
2022/03/15 11:21:34;;;;;;;36.08;22.52;;;10.20;99.90;;;;;;5077136;28;20063;-72
2022/03/15 11:24:02;;;;;;;28.75;21.95;;;10.10;99.90;;;;;;5094305;28;20669;-72
2022/03/15 11:26:31;;;;;;;31.23;21.48;;;10.10;99.90;;;;;;5094707;28;20495;-74
2022/03/15 11:28:57;;;;;;;29.55;21.05;;;10.10;99.90;;;;;;5077289;28;20067;-71
2022/03/15 11:31:23;;;;;;;34.97;21.83;;;10.10;99.90;;;;;;5077392;28;20111;-72
2022/03/15 11:33:50;;;;;;;36.55;23.75;;;10.10;99.90;;;;;;5073751;28;20039;-72
2022/03/15 11:36:17;;;;;;;31.90;23.45;;;10.10;99.90;;;;;;5076428;28;20052;-71
2022/03/15 11:38:43;;;;;;;36.17;24.85;;;10.10;99.90;;;;;;5079758;28;20101;-72
2022/03/15 11:41:10;;;;;;;30.50;22.48;;;10.10;99.90;;;;;;5080371;28;20048;-72
2022/03/15 11:43:50;;;;;;;32.05;21.63;;;10.20;99.90;;;;;;5080714;28;20393;-73
2022/03/15 11:46:28;;;;;;;30.02;20.98;;;10.30;99.90;;;;;;5098683;28;20048;-71
2022/03/15 11:49:12;;;;;;;27.90;21.05;;;10.30;99.90;;;;;;5080583;28;20075;-73
2022/03/15 11:52:01;;;;;;;29.60;19.02;;;10.60;99.90;;;;;;5080715;28;20075;-72
2022/03/15 11:54:30;;;;;;;29.83;21.08;;;10.60;99.90;;;;;;5076533;28;20500;-72
2022/03/15 11:57:21;;;;;;;29.88;20.98;;;10.80;99.90;;;;;;5077219;28;20072;-73
2022/03/15 11:59:52;;;;;;;30.02;20.80;;;10.90;99.90;;;;;;5078163;28;20053;-73
2022/03/15 12:02:40;;;;;;;33.10;19.92;;;11.00;99.90;;;;;;5077825;28;20055;-71
2022/03/15 12:05:18;;;;;;;29.48;19.15;;;11.10;99.90;;;;;;5077856;28;20136;-74
2022/03/15 12:07:46;;;;;;;28.23;18.80;;;11.30;99.90;;;;;;5077720;28;20109;-71
2022/03/15 12:10:26;;;;;;;32.08;18.98;;;11.40;99.90;;;;;;5077851;28;20158;-72
2022/03/15 12:13:00;;;;;;;24.70;17.60;;;11.50;99.90;;;;;;5077609;28;20045;-71
2022/03/15 12:15:34;;;;;;;25.98;15.52;;;11.60;99.90;;;;;;5077562;28;20101;-72
2022/03/15 12:18:27;;;;;;;24.42;14.63;;;11.70;99.90;;;;;;5077276;28;20032;-72
2022/03/15 12:21:25;;;;;;;22.15;13.95;;;11.80;99.90;;;;;;5073122;28;20076;-72
2022/03/15 12:23:54;;;;;;;20.08;13.25;;;11.80;99.90;;;;;;5062688;28;20056;-72
2022/03/15 12:26:28;;;;;;;22.75;13.50;;;11.90;99.90;;;;;;5077163;28;20439;-71
2022/03/15 12:29:02;;;;;;;24.20;14.02;;;11.90;99.90;;;;;;5076963;28;20494;-72
2022/03/15 12:31:45;;;;;;;23.08;13.55;;;11.90;99.90;;;;;;5077402;28;20045;-71
2022/03/15 12:34:15;;;;;;;24.30;13.32;;;12.00;99.90;;;;;;5076468;28;20357;-73
2022/03/15 12:36:54;;;;;;;22.65;12.50;;;12.00;99.90;;;;;;5077108;28;20044;-72